sensor_id;sensor_type;location;lat;lon;timestamp;P1;durP1;ratioP1;P2;durP2;ratioP2
22240;SDS011;11289;52.524;13.694;2023-02-01T00:01:35;16.73;;;3.20;;
22240;SDS011;11289;52.524;13.694;2023-02-01T00:04:00;19.80;;;2.53;;
22240;SDS011;11289;52.524;13.694;2023-02-01T00:06:26;16.23;;;2.58;;
22240;SDS011;11289;52.524;13.694;2023-02-01T00:08:54;17.67;;;3.17;;
22240;SDS011;11289;52.524;13.694;2023-02-01T00:11:20;27.10;;;3.72;;
22240;SDS011;11289;52.524;13.694;2023-02-01T00:13:47;14.18;;;3.22;;
22240;SDS011;11289;52.524;13.694;2023-02-01T00:16:14;12.65;;;2.53;;
22240;SDS011;11289;52.524;13.694;2023-02-01T00:18:44;13.98;;;2.63;;
22240;SDS011;11289;52.524;13.694;2023-02-01T00:21:11;21.35;;;3.28;;
22240;SDS011;11289;52.524;13.694;2023-02-01T00:23:38;21.08;;;3.47;;
22240;SDS011;11289;52.524;13.694;2023-02-01T00:26:05;14.68;;;2.88;;
22240;SDS011;11289;52.524;13.694;2023-02-01T00:28:32;15.55;;;2.83;;
22240;SDS011;11289;52.524;13.694;2023-02-01T00:30:58;19.23;;;3.13;;
22240;SDS011;11289;52.524;13.694;2023-02-01T00:33:25;19.55;;;3.53;;
22240;SDS011;11289;52.524;13.694;2023-02-01T00:35:51;19.27;;;3.03;;
22240;SDS011;11289;52.524;13.694;2023-02-01T00:38:28;18.15;;;2.83;;
22240;SDS011;11289;52.524;13.694;2023-02-01T00:40:54;19.42;;;3.33;;
22240;SDS011;11289;52.524;13.694;2023-02-01T00:43:27;11.00;;;2.80;;
22240;SDS011;11289;52.524;13.694;2023-02-01T00:45:52;19.60;;;2.25;;
22240;SDS011;11289;52.524;13.694;2023-02-01T00:48:18;20.02;;;4.40;;
22240;SDS011;11289;52.524;13.694;2023-02-01T00:50:43;15.85;;;2.92;;
22240;SDS011;11289;52.524;13.694;2023-02-01T00:53:09;19.85;;;2.78;;
22240;SDS011;11289;52.524;13.694;2023-02-01T00:55:35;9.50;;;2.08;;
22240;SDS011;11289;52.524;13.694;2023-02-01T00:58:01;14.15;;;2.95;;
22240;SDS011;11289;52.524;13.694;2023-02-01T01:00:27;15.75;;;3.05;;
22240;SDS011;11289;52.524;13.694;2023-02-01T01:02:52;15.52;;;3.10;;
22240;SDS011;11289;52.524;13.694;2023-02-01T01:05:18;13.40;;;2.30;;
22240;SDS011;11289;52.524;13.694;2023-02-01T01:07:43;13.10;;;2.28;;
22240;SDS011;11289;52.524;13.694;2023-02-01T01:10:09;20.98;;;2.47;;
22240;SDS011;11289;52.524;13.694;2023-02-01T01:12:35;10.40;;;2.50;;
22240;SDS011;11289;52.524;13.694;2023-02-01T01:15:00;15.88;;;2.58;;
22240;SDS011;11289;52.524;13.694;2023-02-01T01:17:26;13.23;;;2.42;;
22240;SDS011;11289;52.524;13.694;2023-02-01T01:19:51;14.07;;;2.72;;
22240;SDS011;11289;52.524;13.694;2023-02-01T01:22:16;15.23;;;2.22;;
22240;SDS011;11289;52.524;13.694;2023-02-01T01:24:42;14.88;;;2.60;;
22240;SDS011;11289;52.524;13.694;2023-02-01T01:27:08;13.68;;;1.83;;
22240;SDS011;11289;52.524;13.694;2023-02-01T01:29:33;16.50;;;2.33;;
22240;SDS011;11289;52.524;13.694;2023-02-01T01:31:59;20.55;;;2.38;;
22240;SDS011;11289;52.524;13.694;2023-02-01T01:34:24;23.70;;;2.97;;
22240;SDS011;11289;52.524;13.694;2023-02-01T01:36:50;12.70;;;2.40;;
22240;SDS011;11289;52.524;13.694;2023-02-01T01:39:15;14.38;;;2.75;;
22240;SDS011;11289;52.524;13.694;2023-02-01T01:41:40;9.35;;;2.17;;
22240;SDS011;11289;52.524;13.694;2023-02-01T01:44:53;12.75;;;2.35;;
22240;SDS011;11289;52.524;13.694;2023-02-01T01:47:09;18.00;;;2.55;;
22240;SDS011;11289;52.524;13.694;2023-02-01T01:49:35;15.88;;;2.28;;
22240;SDS011;11289;52.524;13.694;2023-02-01T01:52:03;15.13;;;2.80;;
22240;SDS011;11289;52.524;13.694;2023-02-01T01:54:29;14.27;;;2.72;;
22240;SDS011;11289;52.524;13.694;2023-02-01T01:57:14;11.30;;;2.72;;
22240;SDS011;11289;52.524;13.694;2023-02-01T01:59:43;11.15;;;2.50;;
22240;SDS011;11289;52.524;13.694;2023-02-01T02:02:14;11.07;;;2.65;;
22240;SDS011;11289;52.524;13.694;2023-02-01T02:04:40;16.45;;;2.28;;
22240;SDS011;11289;52.524;13.694;2023-02-01T02:07:17;15.75;;;2.28;;
22240;SDS011;11289;52.524;13.694;2023-02-01T02:09:46;14.27;;;2.42;;
22240;SDS011;11289;52.524;13.694;2023-02-01T02:12:11;17.13;;;2.22;;
22240;SDS011;11289;52.524;13.694;2023-02-01T02:14:37;13.85;;;1.98;;
22240;SDS011;11289;52.524;13.694;2023-02-01T02:33:51;14.60;;;2.17;;
22240;SDS011;11289;52.524;13.694;2023-02-01T02:36:30;19.48;;;2.58;;
22240;SDS011;11289;52.524;13.694;2023-02-01T02:39:12;14.15;;;2.10;;
22240;SDS011;11289;52.524;13.694;2023-02-01T02:41:45;12.35;;;2.58;;
22240;SDS011;11289;52.524;13.694;2023-02-01T02:44:44;13.55;;;2.35;;
22240;SDS011;11289;52.524;13.694;2023-02-01T02:47:35;13.30;;;2.33;;
22240;SDS011;11289;52.524;13.694;2023-02-01T02:53:10;14.20;;;2.85;;
22240;SDS011;11289;52.524;13.694;2023-02-01T02:55:57;14.23;;;3.10;;
22240;SDS011;11289;52.524;13.694;2023-02-01T02:58:43;15.35;;;2.83;;
22240;SDS011;11289;52.524;13.694;2023-02-01T03:01:29;16.60;;;2.25;;
22240;SDS011;11289;52.524;13.694;2023-02-01T03:04:14;25.27;;;2.58;;
22240;SDS011;11289;52.524;13.694;2023-02-01T03:06:42;11.90;;;2.60;;
22240;SDS011;11289;52.524;13.694;2023-02-01T03:09:11;16.33;;;2.45;;
22240;SDS011;11289;52.524;13.694;2023-02-01T03:11:44;16.02;;;2.97;;
22240;SDS011;11289;52.524;13.694;2023-02-01T03:14:32;17.90;;;2.65;;
22240;SDS011;11289;52.524;13.694;2023-02-01T03:17:03;15.80;;;2.92;;
22240;SDS011;11289;52.524;13.694;2023-02-01T03:19:40;17.88;;;2.92;;
22240;SDS011;11289;52.524;13.694;2023-02-01T03:22:15;15.32;;;2.65;;
22240;SDS011;11289;52.524;13.694;2023-02-01T03:24:45;15.65;;;2.22;;
22240;SDS011;11289;52.524;13.694;2023-02-01T03:32:20;16.08;;;2.88;;
22240;SDS011;11289;52.524;13.694;2023-02-01T03:34:46;16.50;;;2.80;;
22240;SDS011;11289;52.524;13.694;2023-02-01T03:37:14;17.77;;;3.13;;
22240;SDS011;11289;52.524;13.694;2023-02-01T03:42:45;17.02;;;2.38;;
22240;SDS011;11289;52.524;13.694;2023-02-01T03:45:36;15.68;;;2.67;;
22240;SDS011;11289;52.524;13.694;2023-02-01T03:48:07;16.65;;;3.25;;
22240;SDS011;11289;52.524;13.694;2023-02-01T03:50:46;13.20;;;2.85;;
22240;SDS011;11289;52.524;13.694;2023-02-01T03:53:15;13.77;;;2.88;;
22240;SDS011;11289;52.524;13.694;2023-02-01T03:55:45;19.10;;;2.95;;
22240;SDS011;11289;52.524;13.694;2023-02-01T03:58:13;16.30;;;2.72;;
22240;SDS011;11289;52.524;13.694;2023-02-01T04:00:40;21.00;;;3.72;;
22240;SDS011;11289;52.524;13.694;2023-02-01T04:03:17;20.95;;;3.13;;
22240;SDS011;11289;52.524;13.694;2023-02-01T04:05:42;16.73;;;2.58;;
22240;SDS011;11289;52.524;13.694;2023-02-01T04:08:08;16.45;;;2.85;;
22240;SDS011;11289;52.524;13.694;2023-02-01T04:10:33;13.45;;;3.10;;
22240;SDS011;11289;52.524;13.694;2023-02-01T04:12:59;16.15;;;2.70;;
22240;SDS011;11289;52.524;13.694;2023-02-01T04:15:24;20.77;;;4.70;;
22240;SDS011;11289;52.524;13.694;2023-02-01T04:17:51;18.80;;;2.67;;
22240;SDS011;11289;52.524;13.694;2023-02-01T04:20:16;14.35;;;2.50;;
22240;SDS011;11289;52.524;13.694;2023-02-01T04:22:41;18.77;;;2.60;;
22240;SDS011;11289;52.524;13.694;2023-02-01T04:25:07;18.27;;;3.28;;
22240;SDS011;11289;52.524;13.694;2023-02-01T04:27:33;28.98;;;3.38;;
22240;SDS011;11289;52.524;13.694;2023-02-01T04:29:58;13.27;;;2.97;;
22240;SDS011;11289;52.524;13.694;2023-02-01T04:32:24;14.38;;;2.75;;
22240;SDS011;11289;52.524;13.694;2023-02-01T04:34:49;17.92;;;3.53;;
22240;SDS011;11289;52.524;13.694;2023-02-01T04:37:15;18.73;;;3.20;;
22240;SDS011;11289;52.524;13.694;2023-02-01T04:39:40;11.13;;;3.05;;
22240;SDS011;11289;52.524;13.694;2023-02-01T04:42:05;13.57;;;2.85;;
22240;SDS011;11289;52.524;13.694;2023-02-01T04:44:31;19.85;;;4.22;;
22240;SDS011;11289;52.524;13.694;2023-02-01T04:46:56;17.23;;;3.10;;
22240;SDS011;11289;52.524;13.694;2023-02-01T04:49:22;19.73;;;2.92;;
22240;SDS011;11289;52.524;13.694;2023-02-01T04:51:48;16.13;;;3.60;;
22240;SDS011;11289;52.524;13.694;2023-02-01T04:54:13;15.65;;;2.67;;
22240;SDS011;11289;52.524;13.694;2023-02-01T04:56:39;15.88;;;2.80;;
22240;SDS011;11289;52.524;13.694;2023-02-01T04:59:05;13.88;;;2.67;;
22240;SDS011;11289;52.524;13.694;2023-02-01T05:01:30;13.93;;;2.55;;
22240;SDS011;11289;52.524;13.694;2023-02-01T05:03:56;13.60;;;3.03;;
22240;SDS011;11289;52.524;13.694;2023-02-01T05:06:22;15.95;;;2.72;;
22240;SDS011;11289;52.524;13.694;2023-02-01T05:08:48;13.98;;;2.63;;
22240;SDS011;11289;52.524;13.694;2023-02-01T05:11:13;10.73;;;2.13;;
22240;SDS011;11289;52.524;13.694;2023-02-01T05:13:58;12.55;;;3.75;;
22240;SDS011;11289;52.524;13.694;2023-02-01T05:16:24;15.05;;;3.00;;
22240;SDS011;11289;52.524;13.694;2023-02-01T05:18:50;12.25;;;3.10;;
22240;SDS011;11289;52.524;13.694;2023-02-01T05:21:15;16.83;;;2.92;;
22240;SDS011;11289;52.524;13.694;2023-02-01T05:23:41;14.93;;;3.35;;
22240;SDS011;11289;52.524;13.694;2023-02-01T05:26:25;17.63;;;2.45;;
22240;SDS011;11289;52.524;13.694;2023-02-01T05:28:51;25.33;;;3.50;;
22240;SDS011;11289;52.524;13.694;2023-02-01T05:31:16;14.30;;;2.63;;
22240;SDS011;11289;52.524;13.694;2023-02-01T05:33:42;24.67;;;2.85;;
22240;SDS011;11289;52.524;13.694;2023-02-01T05:36:07;16.45;;;2.58;;
22240;SDS011;11289;52.524;13.694;2023-02-01T05:38:33;16.75;;;3.30;;
22240;SDS011;11289;52.524;13.694;2023-02-01T05:40:58;15.90;;;2.95;;
22240;SDS011;11289;52.524;13.694;2023-02-01T05:43:24;16.63;;;2.97;;
22240;SDS011;11289;52.524;13.694;2023-02-01T05:45:51;17.05;;;3.08;;
22240;SDS011;11289;52.524;13.694;2023-02-01T05:48:17;13.55;;;3.30;;
22240;SDS011;11289;52.524;13.694;2023-02-01T05:50:42;15.75;;;3.15;;
22240;SDS011;11289;52.524;13.694;2023-02-01T05:53:08;12.93;;;2.60;;
22240;SDS011;11289;52.524;13.694;2023-02-01T05:55:34;19.60;;;3.42;;
22240;SDS011;11289;52.524;13.694;2023-02-01T05:57:59;17.33;;;3.63;;
22240;SDS011;11289;52.524;13.694;2023-02-01T06:00:24;14.80;;;3.20;;
22240;SDS011;11289;52.524;13.694;2023-02-01T06:02:50;17.25;;;2.97;;
22240;SDS011;11289;52.524;13.694;2023-02-01T06:05:15;14.52;;;3.00;;
22240;SDS011;11289;52.524;13.694;2023-02-01T06:07:41;16.05;;;2.75;;
22240;SDS011;11289;52.524;13.694;2023-02-01T06:10:07;17.17;;;3.00;;
22240;SDS011;11289;52.524;13.694;2023-02-01T06:12:33;14.05;;;2.65;;
22240;SDS011;11289;52.524;13.694;2023-02-01T06:14:58;15.10;;;2.70;;
22240;SDS011;11289;52.524;13.694;2023-02-01T06:17:24;17.48;;;2.60;;
22240;SDS011;11289;52.524;13.694;2023-02-01T06:19:49;15.90;;;3.40;;
22240;SDS011;11289;52.524;13.694;2023-02-01T06:22:15;14.98;;;2.50;;
22240;SDS011;11289;52.524;13.694;2023-02-01T06:24:40;19.85;;;3.53;;
22240;SDS011;11289;52.524;13.694;2023-02-01T06:27:06;10.93;;;3.00;;
22240;SDS011;11289;52.524;13.694;2023-02-01T06:29:31;15.75;;;2.47;;
22240;SDS011;11289;52.524;13.694;2023-02-01T06:31:57;15.63;;;3.83;;
22240;SDS011;11289;52.524;13.694;2023-02-01T06:34:23;16.95;;;3.58;;
22240;SDS011;11289;52.524;13.694;2023-02-01T06:36:48;10.18;;;2.80;;
22240;SDS011;11289;52.524;13.694;2023-02-01T06:39:14;15.50;;;2.97;;
22240;SDS011;11289;52.524;13.694;2023-02-01T06:41:41;20.45;;;2.88;;
22240;SDS011;11289;52.524;13.694;2023-02-01T06:44:07;12.90;;;3.45;;
22240;SDS011;11289;52.524;13.694;2023-02-01T06:46:33;18.90;;;3.65;;
22240;SDS011;11289;52.524;13.694;2023-02-01T06:48:58;21.27;;;3.80;;
22240;SDS011;11289;52.524;13.694;2023-02-01T06:51:25;15.40;;;3.00;;
22240;SDS011;11289;52.524;13.694;2023-02-01T06:53:52;18.27;;;2.80;;
22240;SDS011;11289;52.524;13.694;2023-02-01T06:56:17;14.00;;;3.45;;
22240;SDS011;11289;52.524;13.694;2023-02-01T06:58:43;16.58;;;3.38;;
22240;SDS011;11289;52.524;13.694;2023-02-01T07:01:09;15.02;;;2.67;;
22240;SDS011;11289;52.524;13.694;2023-02-01T07:03:35;13.60;;;3.08;;
22240;SDS011;11289;52.524;13.694;2023-02-01T07:06:02;13.98;;;2.80;;
22240;SDS011;11289;52.524;13.694;2023-02-01T07:08:29;19.33;;;2.97;;
22240;SDS011;11289;52.524;13.694;2023-02-01T07:10:55;15.77;;;2.92;;
22240;SDS011;11289;52.524;13.694;2023-02-01T07:13:21;12.68;;;3.55;;
22240;SDS011;11289;52.524;13.694;2023-02-01T07:15:47;12.23;;;3.25;;
22240;SDS011;11289;52.524;13.694;2023-02-01T07:18:12;16.00;;;3.28;;
22240;SDS011;11289;52.524;13.694;2023-02-01T07:20:40;16.30;;;3.20;;
22240;SDS011;11289;52.524;13.694;2023-02-01T07:23:06;20.83;;;3.70;;
22240;SDS011;11289;52.524;13.694;2023-02-01T07:25:35;13.23;;;2.30;;
22240;SDS011;11289;52.524;13.694;2023-02-01T07:28:01;18.40;;;3.33;;
22240;SDS011;11289;52.524;13.694;2023-02-01T07:30:26;21.23;;;4.15;;
22240;SDS011;11289;52.524;13.694;2023-02-01T07:32:52;18.23;;;4.28;;
22240;SDS011;11289;52.524;13.694;2023-02-01T07:35:17;15.52;;;4.88;;
22240;SDS011;11289;52.524;13.694;2023-02-01T07:37:42;14.75;;;3.50;;
22240;SDS011;11289;52.524;13.694;2023-02-01T07:40:08;13.63;;;2.78;;
22240;SDS011;11289;52.524;13.694;2023-02-01T07:42:34;16.52;;;3.20;;
22240;SDS011;11289;52.524;13.694;2023-02-01T07:44:59;17.98;;;3.38;;
22240;SDS011;11289;52.524;13.694;2023-02-01T07:47:25;13.32;;;2.97;;
22240;SDS011;11289;52.524;13.694;2023-02-01T07:49:51;14.63;;;2.95;;
22240;SDS011;11289;52.524;13.694;2023-02-01T07:52:16;15.55;;;3.05;;
22240;SDS011;11289;52.524;13.694;2023-02-01T07:54:41;19.13;;;3.25;;
22240;SDS011;11289;52.524;13.694;2023-02-01T07:57:08;25.15;;;4.35;;
22240;SDS011;11289;52.524;13.694;2023-02-01T07:59:33;14.50;;;3.25;;
22240;SDS011;11289;52.524;13.694;2023-02-01T08:01:59;15.98;;;3.80;;
22240;SDS011;11289;52.524;13.694;2023-02-01T08:04:24;13.13;;;2.47;;
22240;SDS011;11289;52.524;13.694;2023-02-01T08:06:50;12.95;;;3.40;;
22240;SDS011;11289;52.524;13.694;2023-02-01T08:09:15;12.77;;;2.88;;
22240;SDS011;11289;52.524;13.694;2023-02-01T08:11:40;12.85;;;3.45;;
22240;SDS011;11289;52.524;13.694;2023-02-01T08:14:06;15.50;;;3.30;;
22240;SDS011;11289;52.524;13.694;2023-02-01T08:16:31;14.80;;;2.70;;
22240;SDS011;11289;52.524;13.694;2023-02-01T08:18:59;11.45;;;2.85;;
22240;SDS011;11289;52.524;13.694;2023-02-01T08:21:26;11.73;;;3.15;;
22240;SDS011;11289;52.524;13.694;2023-02-01T08:24:02;9.60;;;2.80;;
22240;SDS011;11289;52.524;13.694;2023-02-01T08:26:31;9.55;;;2.97;;
22240;SDS011;11289;52.524;13.694;2023-02-01T08:28:58;12.40;;;2.95;;
22240;SDS011;11289;52.524;13.694;2023-02-01T08:31:26;9.93;;;2.78;;
22240;SDS011;11289;52.524;13.694;2023-02-01T08:33:54;12.32;;;3.03;;
22240;SDS011;11289;52.524;13.694;2023-02-01T08:36:21;9.20;;;2.45;;
22240;SDS011;11289;52.524;13.694;2023-02-01T08:38:47;10.02;;;2.22;;
22240;SDS011;11289;52.524;13.694;2023-02-01T08:41:15;7.43;;;2.55;;
22240;SDS011;11289;52.524;13.694;2023-02-01T08:43:42;6.53;;;2.60;;
22240;SDS011;11289;52.524;13.694;2023-02-01T08:46:09;14.32;;;2.78;;
22240;SDS011;11289;52.524;13.694;2023-02-01T08:48:35;5.13;;;1.95;;
22240;SDS011;11289;52.524;13.694;2023-02-01T08:51:02;11.43;;;2.70;;
22240;SDS011;11289;52.524;13.694;2023-02-01T08:53:35;7.07;;;2.35;;
22240;SDS011;11289;52.524;13.694;2023-02-01T08:56:01;14.75;;;2.92;;
22240;SDS011;11289;52.524;13.694;2023-02-01T08:58:27;10.55;;;2.60;;
22240;SDS011;11289;52.524;13.694;2023-02-01T09:00:52;8.77;;;2.40;;
22240;SDS011;11289;52.524;13.694;2023-02-01T09:03:18;7.95;;;2.30;;
22240;SDS011;11289;52.524;13.694;2023-02-01T09:05:43;8.50;;;2.53;;
22240;SDS011;11289;52.524;13.694;2023-02-01T09:08:10;8.27;;;2.47;;
22240;SDS011;11289;52.524;13.694;2023-02-01T09:10:38;10.13;;;2.97;;
22240;SDS011;11289;52.524;13.694;2023-02-01T09:13:04;6.97;;;2.60;;
22240;SDS011;11289;52.524;13.694;2023-02-01T09:15:30;5.60;;;2.20;;
22240;SDS011;11289;52.524;13.694;2023-02-01T09:17:55;7.10;;;2.50;;
22240;SDS011;11289;52.524;13.694;2023-02-01T09:20:20;6.85;;;2.15;;
22240;SDS011;11289;52.524;13.694;2023-02-01T09:22:49;6.95;;;2.35;;
22240;SDS011;11289;52.524;13.694;2023-02-01T09:25:15;7.50;;;1.83;;
22240;SDS011;11289;52.524;13.694;2023-02-01T09:27:41;6.68;;;1.77;;
22240;SDS011;11289;52.524;13.694;2023-02-01T09:30:06;8.57;;;1.55;;
22240;SDS011;11289;52.524;13.694;2023-02-01T09:32:32;4.50;;;1.63;;
22240;SDS011;11289;52.524;13.694;2023-02-01T09:34:57;3.03;;;1.58;;
22240;SDS011;11289;52.524;13.694;2023-02-01T09:37:23;6.32;;;2.47;;
22240;SDS011;11289;52.524;13.694;2023-02-01T09:39:48;8.13;;;1.88;;
22240;SDS011;11289;52.524;13.694;2023-02-01T09:45:17;8.63;;;1.67;;
22240;SDS011;11289;52.524;13.694;2023-02-01T09:47:59;7.50;;;1.92;;
22240;SDS011;11289;52.524;13.694;2023-02-01T09:50:32;7.05;;;2.03;;
22240;SDS011;11289;52.524;13.694;2023-02-01T09:53:04;4.30;;;1.73;;
22240;SDS011;11289;52.524;13.694;2023-02-01T09:55:51;7.80;;;2.25;;
22240;SDS011;11289;52.524;13.694;2023-02-01T10:01:01;3.47;;;1.38;;
22240;SDS011;11289;52.524;13.694;2023-02-01T10:03:32;8.73;;;1.40;;
22240;SDS011;11289;52.524;13.694;2023-02-01T10:09:03;4.72;;;1.17;;
22240;SDS011;11289;52.524;13.694;2023-02-01T10:11:36;5.30;;;1.55;;
22240;SDS011;11289;52.524;13.694;2023-02-01T10:19:55;3.30;;;1.00;;
22240;SDS011;11289;52.524;13.694;2023-02-01T10:22:42;6.20;;;1.30;;
22240;SDS011;11289;52.524;13.694;2023-02-01T10:28:06;2.58;;;1.20;;
22240;SDS011;11289;52.524;13.694;2023-02-01T10:30:44;3.55;;;0.90;;
22240;SDS011;11289;52.524;13.694;2023-02-01T10:33:18;2.63;;;1.00;;
22240;SDS011;11289;52.524;13.694;2023-02-01T10:35:53;2.67;;;0.88;;
22240;SDS011;11289;52.524;13.694;2023-02-01T10:38:32;4.82;;;1.05;;
22240;SDS011;11289;52.524;13.694;2023-02-01T10:41:02;3.47;;;1.25;;
22240;SDS011;11289;52.524;13.694;2023-02-01T10:43:36;6.15;;;1.23;;
22240;SDS011;11289;52.524;13.694;2023-02-01T10:46:04;2.45;;;1.10;;
22240;SDS011;11289;52.524;13.694;2023-02-01T10:48:29;6.18;;;1.08;;
22240;SDS011;11289;52.524;13.694;2023-02-01T10:50:58;5.55;;;1.45;;
22240;SDS011;11289;52.524;13.694;2023-02-01T10:53:30;5.97;;;1.60;;
22240;SDS011;11289;52.524;13.694;2023-02-01T10:56:07;8.35;;;1.40;;
22240;SDS011;11289;52.524;13.694;2023-02-01T10:58:33;7.40;;;1.30;;
22240;SDS011;11289;52.524;13.694;2023-02-01T11:01:07;7.88;;;1.27;;
22240;SDS011;11289;52.524;13.694;2023-02-01T11:03:44;8.10;;;2.38;;
22240;SDS011;11289;52.524;13.694;2023-02-01T11:06:19;6.00;;;1.73;;
22240;SDS011;11289;52.524;13.694;2023-02-01T11:08:53;7.18;;;1.60;;
22240;SDS011;11289;52.524;13.694;2023-02-01T11:11:20;6.00;;;1.70;;
22240;SDS011;11289;52.524;13.694;2023-02-01T11:13:57;9.48;;;1.40;;
22240;SDS011;11289;52.524;13.694;2023-02-01T11:16:29;5.43;;;1.77;;
22240;SDS011;11289;52.524;13.694;2023-02-01T11:19:05;3.63;;;1.23;;
22240;SDS011;11289;52.524;13.694;2023-02-01T11:21:34;4.20;;;1.20;;
22240;SDS011;11289;52.524;13.694;2023-02-01T11:24:03;6.47;;;1.10;;
22240;SDS011;11289;52.524;13.694;2023-02-01T11:26:30;4.97;;;1.00;;
22240;SDS011;11289;52.524;13.694;2023-02-01T11:29:05;4.75;;;1.50;;
22240;SDS011;11289;52.524;13.694;2023-02-01T11:31:36;4.15;;;1.20;;
22240;SDS011;11289;52.524;13.694;2023-02-01T11:34:07;7.13;;;1.33;;
22240;SDS011;11289;52.524;13.694;2023-02-01T11:36:37;3.15;;;1.20;;
22240;SDS011;11289;52.524;13.694;2023-02-01T11:41:57;8.32;;;1.40;;
22240;SDS011;11289;52.524;13.694;2023-02-01T11:44:34;5.88;;;1.88;;
22240;SDS011;11289;52.524;13.694;2023-02-01T11:49:48;8.63;;;1.70;;
22240;SDS011;11289;52.524;13.694;2023-02-01T11:57:50;5.43;;;1.65;;
22240;SDS011;11289;52.524;13.694;2023-02-01T12:06:31;5.88;;;1.83;;
22240;SDS011;11289;52.524;13.694;2023-02-01T12:39:24;8.15;;;1.38;;
22240;SDS011;11289;52.524;13.694;2023-02-01T12:47:44;5.70;;;1.50;;
22240;SDS011;11289;52.524;13.694;2023-02-01T12:50:20;5.65;;;1.10;;
22240;SDS011;11289;52.524;13.694;2023-02-01T12:52:52;4.60;;;1.73;;
22240;SDS011;11289;52.524;13.694;2023-02-01T12:58:11;8.93;;;2.00;;
22240;SDS011;11289;52.524;13.694;2023-02-01T13:00:46;7.15;;;1.55;;
22240;SDS011;11289;52.524;13.694;2023-02-01T13:03:34;10.30;;;1.60;;
22240;SDS011;11289;52.524;13.694;2023-02-01T13:08:46;10.03;;;2.63;;
22240;SDS011;11289;52.524;13.694;2023-02-01T13:11:15;10.63;;;1.90;;
22240;SDS011;11289;52.524;13.694;2023-02-01T13:21:35;2.78;;;1.10;;
22240;SDS011;11289;52.524;13.694;2023-02-01T13:24:06;2.10;;;0.93;;
22240;SDS011;11289;52.524;13.694;2023-02-01T13:26:45;1.45;;;0.90;;
22240;SDS011;11289;52.524;13.694;2023-02-01T13:29:11;1.95;;;0.68;;
22240;SDS011;11289;52.524;13.694;2023-02-01T13:34:38;2.63;;;0.57;;
22240;SDS011;11289;52.524;13.694;2023-02-01T13:42:51;0.60;;;0.43;;
22240;SDS011;11289;52.524;13.694;2023-02-01T13:45:32;0.95;;;0.60;;
22240;SDS011;11289;52.524;13.694;2023-02-01T13:48:02;4.18;;;0.70;;
22240;SDS011;11289;52.524;13.694;2023-02-01T13:50:33;4.07;;;0.80;;
22240;SDS011;11289;52.524;13.694;2023-02-01T13:53:04;1.00;;;0.70;;
22240;SDS011;11289;52.524;13.694;2023-02-01T13:55:46;1.20;;;0.60;;
22240;SDS011;11289;52.524;13.694;2023-02-01T13:58:21;1.20;;;0.77;;
22240;SDS011;11289;52.524;13.694;2023-02-01T14:00:53;2.38;;;0.90;;
22240;SDS011;11289;52.524;13.694;2023-02-01T14:03:48;5.75;;;1.08;;
22240;SDS011;11289;52.524;13.694;2023-02-01T14:06:15;4.95;;;1.20;;
22240;SDS011;11289;52.524;13.694;2023-02-01T14:08:44;5.18;;;1.30;;
22240;SDS011;11289;52.524;13.694;2023-02-01T14:11:31;5.65;;;1.40;;
22240;SDS011;11289;52.524;13.694;2023-02-01T14:16:44;10.40;;;1.88;;
22240;SDS011;11289;52.524;13.694;2023-02-01T14:19:30;15.95;;;1.77;;
22240;SDS011;11289;52.524;13.694;2023-02-01T14:21:58;7.97;;;2.42;;
22240;SDS011;11289;52.524;13.694;2023-02-01T14:24:39;6.97;;;1.73;;
22240;SDS011;11289;52.524;13.694;2023-02-01T14:29:38;11.88;;;2.40;;
22240;SDS011;11289;52.524;13.694;2023-02-01T14:32:13;11.40;;;2.58;;
22240;SDS011;11289;52.524;13.694;2023-02-01T14:37:23;7.45;;;2.25;;
22240;SDS011;11289;52.524;13.694;2023-02-01T14:50:57;7.82;;;2.30;;
22240;SDS011;11289;52.524;13.694;2023-02-01T15:28:46;3.28;;;1.52;;
22240;SDS011;11289;52.524;13.694;2023-02-01T15:31:12;3.15;;;1.30;;
22240;SDS011;11289;52.524;13.694;2023-02-01T15:33:37;3.65;;;1.35;;
22240;SDS011;11289;52.524;13.694;2023-02-01T15:38:33;5.78;;;1.40;;
22240;SDS011;11289;52.524;13.694;2023-02-01T15:41:19;3.22;;;1.20;;
22240;SDS011;11289;52.524;13.694;2023-02-01T15:49:16;2.88;;;1.58;;
22240;SDS011;11289;52.524;13.694;2023-02-01T15:51:53;3.20;;;1.15;;
22240;SDS011;11289;52.524;13.694;2023-02-01T15:54:27;2.90;;;1.30;;
22240;SDS011;11289;52.524;13.694;2023-02-01T15:56:57;5.00;;;1.35;;
22240;SDS011;11289;52.524;13.694;2023-02-01T15:59:28;1.33;;;1.10;;
22240;SDS011;11289;52.524;13.694;2023-02-01T16:04:24;3.25;;;1.42;;
22240;SDS011;11289;52.524;13.694;2023-02-01T16:06:55;5.15;;;1.30;;
22240;SDS011;11289;52.524;13.694;2023-02-01T16:09:32;4.32;;;1.33;;
22240;SDS011;11289;52.524;13.694;2023-02-01T16:15:12;2.80;;;1.40;;
22240;SDS011;11289;52.524;13.694;2023-02-01T16:17:37;2.17;;;1.08;;
22240;SDS011;11289;52.524;13.694;2023-02-01T16:20:03;3.05;;;1.20;;
22240;SDS011;11289;52.524;13.694;2023-02-01T16:22:29;3.28;;;1.00;;
22240;SDS011;11289;52.524;13.694;2023-02-01T16:25:00;2.92;;;1.17;;
22240;SDS011;11289;52.524;13.694;2023-02-01T16:27:27;1.52;;;1.00;;
22240;SDS011;11289;52.524;13.694;2023-02-01T16:30:00;0.63;;;0.63;;
22240;SDS011;11289;52.524;13.694;2023-02-01T16:32:28;1.38;;;0.90;;
22240;SDS011;11289;52.524;13.694;2023-02-01T16:34:59;1.00;;;0.77;;
22240;SDS011;11289;52.524;13.694;2023-02-01T16:40:25;0.90;;;0.70;;
22240;SDS011;11289;52.524;13.694;2023-02-01T16:43:21;1.48;;;0.80;;
22240;SDS011;11289;52.524;13.694;2023-02-01T16:48:23;1.45;;;0.70;;
22240;SDS011;11289;52.524;13.694;2023-02-01T16:50:54;2.45;;;0.80;;
22240;SDS011;11289;52.524;13.694;2023-02-01T16:53:25;2.65;;;0.80;;
22240;SDS011;11289;52.524;13.694;2023-02-01T16:58:48;1.73;;;0.70;;
22240;SDS011;11289;52.524;13.694;2023-02-01T17:01:16;1.10;;;0.90;;
22240;SDS011;11289;52.524;13.694;2023-02-01T17:03:43;0.73;;;0.63;;
22240;SDS011;11289;52.524;13.694;2023-02-01T17:06:10;1.92;;;1.05;;
22240;SDS011;11289;52.524;13.694;2023-02-01T17:08:39;1.63;;;0.90;;
22240;SDS011;11289;52.524;13.694;2023-02-01T17:11:06;1.80;;;0.90;;
22240;SDS011;11289;52.524;13.694;2023-02-01T17:13:36;1.13;;;1.00;;
22240;SDS011;11289;52.524;13.694;2023-02-01T17:16:03;1.83;;;1.17;;
22240;SDS011;11289;52.524;13.694;2023-02-01T17:18:32;1.80;;;1.33;;
22240;SDS011;11289;52.524;13.694;2023-02-01T17:21:00;3.45;;;1.20;;
22240;SDS011;11289;52.524;13.694;2023-02-01T17:23:27;2.50;;;1.00;;
22240;SDS011;11289;52.524;13.694;2023-02-01T17:25:54;1.67;;;1.08;;
22240;SDS011;11289;52.524;13.694;2023-02-01T17:28:20;2.42;;;1.20;;
22240;SDS011;11289;52.524;13.694;2023-02-01T17:30:49;2.92;;;1.17;;
22240;SDS011;11289;52.524;13.694;2023-02-01T17:33:20;4.05;;;1.10;;
22240;SDS011;11289;52.524;13.694;2023-02-01T17:35:50;1.85;;;1.20;;
22240;SDS011;11289;52.524;13.694;2023-02-01T17:38:18;3.05;;;0.85;;
22240;SDS011;11289;52.524;13.694;2023-02-01T17:40:43;5.65;;;1.60;;
22240;SDS011;11289;52.524;13.694;2023-02-01T17:43:11;2.78;;;1.30;;
22240;SDS011;11289;52.524;13.694;2023-02-01T17:45:39;2.63;;;1.40;;
22240;SDS011;11289;52.524;13.694;2023-02-01T17:48:14;5.13;;;1.15;;
22240;SDS011;11289;52.524;13.694;2023-02-01T17:50:39;6.05;;;1.35;;
22240;SDS011;11289;52.524;13.694;2023-02-01T17:53:06;3.20;;;1.35;;
22240;SDS011;11289;52.524;13.694;2023-02-01T17:55:34;3.92;;;1.45;;